Wickliffe, KY (42087)

9:40 PM CST on December 21, 2014 (GMT -0600)
South Adkins Dixon Road | Change Station
CLOSE
Current Station
Personal Weather Station
Location: Wickliffe, KY
Elevation: 443 ft
Nearby Weather Stations

Elev 443 ft 37.01 °N, 89.03 °W | Updated 2 seconds ago

Overcast
Overcast
40.6 °F
Feels Like 41 °F
N
0.0
Wind Variable Wind from East
Gusts 0.0 mph

Today
High -- | Low -- °F
--% Chance of Precip.
Yesterday
High -- | Low -- °F
Precip. -- in
7:05 AM 4:42 PM
New Moon, 0% visible
Pressure 30.00 in
Visibility 2.5 miles
Clouds Overcast 10000 ft
Windchill 41 °F
Dew Point 34 °F
Humidity 76%
Rainfall 0.00 in
Snow Depth Not available.
UV 0 out of 12
Pollen 2.60 out of 12
Air Quality Not available.
Flu Activity Not available.
METAR KCIR 220315Z AUTO 08005KT 2 1/2SM HZ OVC100 06/01 A3000 RMK AO2 T00580008

More Conditions Fewer Conditions

Pressure 30.00 in
Visibility 2.5 miles
Clouds Overcast 10000 ft
Windchill 41 °F
Dew Point 34 °F
Humidity 76%
Rainfall 0.00 in
Snow Depth Not available.
UV 0 out of 12
Pollen 2.60 out of 12
Air Quality Not available.
Flu Activity Not available.
METAR KCIR 220315Z AUTO 08005KT 2 1/2SM HZ OVC100 06/01 A3000 RMK AO2 T00580008

More Conditions Fewer Conditions

10-Day Weather Forecast

Almanac

Astronomy

Dec. 21, 2014 Rise Set
Actual Time
Civil Twilight
Nautical Twilight
Astronomical Twilight
Moon
Length of Visible Light
Length of Day
Tomorrow will be .
, % of the Moon is Illuminated

Today's Extremes

State Highs State Lows

Community

WunderPhotos

Upload Photos

1,779,531 photos uploaded!

WunderBlogs® & News

Nearby

Air Quality

  Air Quality AQ Index Pollutant
Not available.

Snow Depth

Station Depth Elevation

Earthquake Activity

City Distance Mag. Time & Date
Minimum magnitude displayed is 2.5.

Coastal Water Temperatures

Place Temperature

Nearby Weather Stations